Flight Track Log - Related Links

Times and Time Zones

All times are in EDT time to prevent confusion due to time zone crossing. See the GJS3710 flight status page for this flight to view local times or setup timezone preferences in your user account.

Time Position Orientation Groundspeed Altitude Reporting Facility
EDT Latitude Longitude Course Direction KTS MPH feet Rate Location/Type
Sat 01:09:07 PM 30.1639 -97.7578 291° West 240 276 4,900  Level Houston Center
Sat 01:10:09 PM 30.2144 -97.8342 307° West 291 335 7,600 3,097 Climbing Houston Center
Sat 01:11:00 PM 30.4880 -97.8669 293° West  Level FlightAware Approximate
Sat 01:11:11 PM 30.2689 -97.9208 306° West 298 343 11,300  Level Houston Center
Sat 01:12:00 PM 30.5292 -97.9874 291° West  Level FlightAware Approximate
Sat 01:12:13 PM 30.3142 -97.9972 304° West 293 337 13,100  Level Houston Center
Sat 01:13:00 PM 30.5703 -98.1106 291° West  Level FlightAware Approximate
Sat 01:13:14 PM 30.3656 -98.0806 306° West 335 386 14,100  Level Houston Center
Sat 01:14:00 PM 30.6113 -98.2339 291° West  Level FlightAware Approximate
Sat 01:14:17 PM 30.4272 -98.1778 306° West 364 419 16,100  Level Houston Center
Sat 01:15:18 PM 30.4878 -98.2778 305° West 373 429 18,200 2,049 Climbing Houston Center
Sat 01:16:20 PM 30.5472 -98.3756 305° West 368 423 20,300 1,935 Climbing Houston Center
Sat 01:17:22 PM 30.6169 -98.4917 305° West 371 427 22,200 1,597 Climbing Houston Center
Sat 01:18:24 PM 30.6797 -98.5931 306° West 379 436 23,600 1,161 Climbing Houston Center
Sat 01:19:26 PM 30.7444 -98.6986 306° West 393 452 24,600 976 Climbing Houston Center
Sat 01:20:27 PM 30.8208 -98.8011 311° West 417 480 25,600 1,122 Climbing Houston Center
Sat 01:21:29 PM 30.9289 -98.8708 331° Northwest 437 503 26,900 1,296 Climbing Houston Center
Sat 01:22:32 PM 31.0375 -98.9383 332° Northwest 438 504 28,300 1,210 Climbing Houston Center
Sat 01:23:33 PM 31.1447 -99.0053 332° Northwest 434 499 29,400 1,024 Climbing Houston Center
Sat 01:24:35 PM 31.2536 -99.0750 331° Northwest 438 504 30,400 919 Climbing Houston Center
Sat 01:25:37 PM 31.3656 -99.1458 332° Northwest 448 516 31,300 878 Climbing Houston Center
Sat 01:26:38 PM 31.4972 -99.2289 332° Northwest 455 524 32,200 976 Climbing Houston Center
Sat 01:27:40 PM 31.6119 -99.3011 332° Northwest 460 529 33,300 1,109 Climbing Houston Center
Sat 01:28:10 PM 31.6642 -99.3367 330° Northwest 450 518 33,900 1,267 Climbing Fort Worth Center
Sat 01:29:10 PM 31.7736 -99.4025 333° Northwest 455 524 35,200 1,100 Climbing Fort Worth Center
Sat 01:30:10 PM 31.8811 -99.4733 331° Northwest 450 518 36,100 750 Climbing Fort Worth Center
Sat 01:31:10 PM 31.9886 -99.5444 331° Northwest 450 518 36,700 700 Climbing Fort Worth Center
Sat 01:32:10 PM 32.0958 -99.6131 332° Northwest 445 512 37,500 650 Climbing Fort Worth Center
Sat 01:33:10 PM 32.2011 -99.6819 331° Northwest 439 505 38,000 250 Climbing Fort Worth Center
Sat 01:34:10 PM 32.3106 -99.7511 332° Northwest 439 505 38,000  Level Fort Worth Center
Sat 01:35:10 PM 32.4178 -99.8250 330° Northwest 439 505 38,000  Level Fort Worth Center
Sat 01:36:10 PM 32.5289 -99.8972 331° Northwest 445 512 38,000  Level Fort Worth Center
Sat 01:37:10 PM 32.6486 -99.9669 334° Northwest 451 519 38,000  Level Fort Worth Center
Sat 01:38:10 PM 32.7578 -100.0417 330° Northwest 451 519 38,000  Level Fort Worth Center
Sat 01:39:10 PM 32.8564 -100.1089 330° Northwest 459 528 38,000  Level Fort Worth Center
Sat 01:40:10 PM 32.9656 -100.1767 332° Northwest 448 516 38,000  Level Fort Worth Center
Sat 01:41:10 PM 33.0728 -100.2469 331° Northwest 448 516 38,000  Level Fort Worth Center
Sat 01:42:10 PM 33.1797 -100.3150 332° Northwest 441 507 38,000  Level Fort Worth Center
Sat 01:43:10 PM 33.2886 -100.3856 332° Northwest 436 502 38,000  Level Fort Worth Center
Sat 01:44:10 PM 33.3933 -100.4561 331° Northwest 436 502 38,000  Level Fort Worth Center
Sat 01:45:10 PM 33.5000 -100.5272 331° Northwest 431 496 38,000  Level Fort Worth Center
Sat 01:46:10 PM 33.6047 -100.5958 331° Northwest 431 496 38,000  Level Fort Worth Center
Sat 01:47:10 PM 33.7114 -100.6669 331° Northwest 431 496 38,000  Level Fort Worth Center
Sat 01:48:10 PM 33.8181 -100.7386 331° Northwest 432 497 38,000 50 Level Fort Worth Center
Sat 01:49:10 PM 33.9269 -100.8078 332° Northwest 432 497 38,100 434 Climbing Fort Worth Center
Sat 01:50:56 PM 34.1114 -100.9294 331° Northwest 434 499 39,200 643 Climbing Albuquerque Center
Sat 01:51:58 PM 34.2131 -101.0000 330° Northwest 427 491 39,900 390 Climbing Albuquerque Center
Sat 01:52:59 PM 34.3150 -101.0664 332° Northwest 421 484 40,000 49 Climbing Albuquerque Center
Sat 01:54:01 PM 34.4383 -101.1494 331° Northwest 421 484 40,000  Level Albuquerque Center
Sat 01:55:03 PM 34.5419 -101.2225 330° Northwest 428 493 40,000  Level Albuquerque Center
Sat 01:56:05 PM 34.6472 -101.2931 331° Northwest 431 496 40,000  Level Albuquerque Center
Sat 01:57:07 PM 34.7544 -101.3656 331° Northwest 438 504 40,000  Level Albuquerque Center
Sat 01:58:09 PM 34.8611 -101.4394 330° Northwest 440 506 40,000  Level Albuquerque Center
Sat 01:59:10 PM 34.9717 -101.5153 331° Northwest 442 509 40,000  Level Albuquerque Center
Sat 02:00:12 PM 35.0817 -101.5911 331° Northwest 449 517 40,000  Level Albuquerque Center
Sat 02:01:14 PM 35.1964 -101.6700 331° Northwest 438 504 40,000  Level Albuquerque Center
Sat 02:02:16 PM 35.3064 -101.7297 336° Northwest 431 496 40,000  Level Albuquerque Center
Sat 02:03:18 PM 35.4197 -101.7814 340° North 434 499 40,000  Level Albuquerque Center
Sat 02:04:19 PM 35.5458 -101.8414 339° North 427 491 40,000  Level Albuquerque Center
Sat 02:05:21 PM 35.6592 -101.8947 339° North 434 499 40,000  Level Albuquerque Center
Sat 02:06:23 PM 35.7742 -101.9478 339° North 438 504 40,000  Level Albuquerque Center
Sat 02:07:25 PM 35.8897 -102.0017 339° North 443 510 40,000  Level Albuquerque Center
Sat 02:08:27 PM 36.0061 -102.0553 340° North 446 513 40,000  Level Albuquerque Center
Sat 02:09:28 PM 36.1214 -102.1092 339° North 444 511 40,000  Level Albuquerque Center
Sat 02:10:30 PM 36.2353 -102.1631 339° North 440 506 40,000  Level Albuquerque Center
Sat 02:11:32 PM 36.3711 -102.2278 339° North 436 502 40,000  Level Albuquerque Center
Sat 02:12:34 PM 36.4833 -102.2803 339° North 433 498 40,000 -195 Level Albuquerque Center
Sat 02:13:35 PM 36.5956 -102.3344 339° North 432 497 39,600 -732 Descending Albuquerque Center
Sat 02:14:37 PM 36.7092 -102.3900 339° North 438 504 38,500 -1,016 Descending Albuquerque Center
Sat 02:15:39 PM 36.8261 -102.4444 340° North 445 512 37,500 -976 Descending Albuquerque Center
Sat 02:16:40 PM 36.9467 -102.5036 339° North 456 525 36,500 -732 Descending Albuquerque Center
Sat 02:17:42 PM 37.0681 -102.5611 339° North 447 514 36,000 -242 Descending Albuquerque Center
Sat 02:18:44 PM 37.1931 -102.6217 339° North 434 499 36,000  Level Albuquerque Center
Sat 02:19:45 PM 37.3028 -102.6742 339° North 437 503 36,000  Level Albuquerque Center
Sat 02:20:47 PM 37.4275 -102.7350 339° North 433 498 36,000  Level Albuquerque Center
Sat 02:21:09 PM 37.4619 -102.7511 340° North 432 497 36,000  Level Denver Center
Sat 02:22:10 PM 37.5711 -102.7964 342° North 430 495 36,000  Level Denver Center
Sat 02:23:12 PM 37.7025 -102.8367 346° North 434 499 36,000  Level Denver Center
Sat 02:24:14 PM 37.8139 -102.8728 346° North 434 499 36,000  Level Denver Center
Sat 02:25:15 PM 37.9450 -102.9136 346° North 434 499 36,000 -146 Level Denver Center
Sat 02:26:17 PM 38.0497 -102.9469 346° North 435 501 35,700 -732 Descending Denver Center
Sat 02:27:18 PM 38.1833 -102.9900 346° North 440 506 34,500 -829 Descending Denver Center
Sat 02:28:20 PM 38.2967 -103.0258 346° North 438 504 34,000 -244 Descending Denver Center
Sat 02:29:21 PM 38.4303 -103.0686 346° North 440 506 34,000  Level Denver Center
Sat 02:30:23 PM 38.5378 -103.1206 339° North 432 497 34,000 -390 Level Denver Center
Sat 02:31:24 PM 38.6258 -103.2233 318° Northwest 428 493 33,200 -844 Descending Denver Center
Sat 02:32:38 PM 38.7167 -103.3528 312° West 437 503 32,100 -971 Descending Denver Center
Sat 02:33:40 PM 38.8081 -103.4775 313° West 431 496 31,000 -1,317 Descending Denver Center
Sat 02:34:41 PM 38.8964 -103.6047 312° West 429 494 29,400 -1,610 Descending Denver Center
Sat 02:35:43 PM 38.9706 -103.7103 312° West 419 482 27,700 -1,790 Descending Denver Center
Sat 02:36:45 PM 39.0564 -103.8317 312° West 413 475 25,700 -1,756 Descending Denver Center
Sat 02:37:46 PM 39.1286 -103.9344 312° West 407 468 24,100 -1,467 Descending Denver Center
Sat 02:39:00 PM 39.2100 -104.0528 312° West 399 459 22,400 -1,689 Descending Denver Center
Sat 02:40:01 PM 39.3025 -104.1619 318° Northwest 383 441 20,300 -1,951 Descending Denver Center
Sat 02:41:03 PM 39.3858 -104.2297 328° Northwest 356 410 18,400 -1,742 Descending Denver Center
Sat 02:42:05 PM 39.4731 -104.2986 329° Northwest 343 395 16,700 -1,268 Descending Denver Center
Sat 02:43:06 PM 39.5494 -104.3619 327° Northwest 327 376 15,800 -878 Descending Denver Center
Sat 02:44:08 PM 39.6264 -104.4236 328° Northwest 326 375 14,900 -829 Descending Denver Center
Sat 02:45:09 PM 39.7064 -104.4894 328° Northwest 318 366 14,100 -1,073 Descending Denver Center
Sat 02:46:11 PM 39.7906 -104.5222 343° North 323 372 12,700 -1,317 Descending Denver Center
Sat 02:47:12 PM 39.8758 -104.5217 360° North 311 358 11,400 -844 Descending Denver Center
Sat 02:48:26 PM 39.9508 -104.5344 353° North 260 299 10,800 -1,015 Descending Denver Center
Sat 02:49:28 PM 40.0189 -104.5978 325° Northwest 254 292 9,100 -1,645 Descending Denver Center

Login

Don't have an account? Register now (free) for customized features, flight alerts, and more!